メインページ
METAR-TAF:

METAR-TAF

空港 :

横田飛行場

横田, 日本

緯度: 35-45N, 経度: 139-21E, 海抜: 139m

現時点の気象観測

当レポートは26分前の06:56(UTC)に作成
の風 4kt
気温 27°C
湿度 58%
気圧 1014 hPa
視程: 16.1km
高度3500ftの曇り

METAR: RJTY 200656Z AUTO 17004KT 10SM OVC035 27/18 A2994 RMK AO2 SLP137 T02710184 FZRANO $

時間: 16:22 (07:22 UTC)

予報

当レポートは2時間22分前の05:00(UTC)に作成
予報は20日の 05時(UTC)から 21日の 11時(UTC)まで有効
の風 6kt
視程10km以上
高度3000ftの千切れ雲あり
20日の 10時(UTC)から 20日の 11時(UTC)まで徐々に
南/南東の風 6kt
視程10km以上
高度2000ftの千切れ雲あり
20日の 16時(UTC)から 20日の 17時(UTC)まで徐々に
変向風 6kt
視程10km以上
高度1200ftの千切れ雲あり
21日の 00時(UTC)から 21日の 01時(UTC)まで徐々に
の風 9kt
視程10km以上
高度3000ftの千切れ雲あり
21日の 04時(UTC)から 21日の 05時(UTC)まで徐々に
南/南東の風 10kt、最大15ktの突風を伴う
視程10km以上
高度3000ftの雲はほとんどない
高度5000ftの雲は散在している

TAF: RJTY 200500Z 2005/2111 10006KT 9999 BKN030 QNH2987INS BECMG 2010/2011 15006KT 9999 BKN020 QNH2985INS BECMG 2016/2017 VRB06KT 9999 BKN012 QNH2985INS BECMG 2100/2101 18009KT 9999 BKN030 QNH2985INS BECMG 2104/2105 16010G15KT 9999 FEW030 SCT050 QNH2985INS TX32/2105Z TN21/2019Z

4,000以上の空港の気象観測と天気予報(METAR報とTAF報)

利用可能な観測所は地図上に黄色い丸と赤い丸で示す。

丸の上にカーソルを重ねると観測所名を参照できる。

次にクリックすると気象観測と天気予報を参照できる。

マップの切り替え:黒色「×」印の緑ボタンをクリックして拡大、「-」印の緑ボタンをクリックして縮小、緑色の三角印をクリックして隣りの地図に切り替え


METAR-TAF: